Time;durP1;ratioP1;P1;durP2;ratioP2;P2;SDS_P1;SDS_P2;PMS_P1;PMS_P2;Temp;Humidity;BMP_temperature;BMP_pressure;BME280_temperature;BME280_humidity;BME280_pressure;Samples;Min_cycle;Max_cycle;Signal;HPM_P1;HPM_P2
2022/04/05 00:02:24;;;;;;;10.82;1.90;;;6.80;99.90;;;;;;5032859;28;20052;-83
2022/04/05 00:04:49;;;;;;;6.38;1.77;;;6.70;99.90;;;;;;5032680;28;20056;-83
2022/04/05 00:07:15;;;;;;;6.10;1.50;;;6.70;99.90;;;;;;5016311;28;20049;-83
2022/04/05 00:09:41;;;;;;;8.02;1.65;;;6.70;99.90;;;;;;5032421;28;20087;-83
2022/04/05 00:12:07;;;;;;;11.25;1.70;;;6.50;99.90;;;;;;5032450;28;20041;-83
2022/04/05 00:14:33;;;;;;;8.32;1.75;;;6.70;99.90;;;;;;5032092;28;20492;-83
2022/04/05 00:16:59;;;;;;;7.28;1.77;;;6.60;99.90;;;;;;5032619;28;20098;-83
2022/04/05 00:19:25;;;;;;;6.78;1.60;;;7.40;99.90;;;;;;5032266;28;20053;-83
2022/04/05 00:21:54;;;;;;;5.38;1.70;;;6.90;99.90;;;;;;5033311;28;20132;-83
2022/04/05 00:24:20;;;;;;;5.10;1.40;;;6.60;99.90;;;;;;5032353;28;20049;-83
2022/04/05 00:26:45;;;;;;;9.45;1.70;;;6.60;99.90;;;;;;5033541;28;20111;-83
2022/04/05 00:29:11;;;;;;;5.30;1.30;;;6.60;99.90;;;;;;5032018;28;20042;-83
2022/04/05 00:31:37;;;;;;;5.32;1.67;;;6.60;99.90;;;;;;5032304;28;20052;-83
2022/04/05 00:34:03;;;;;;;6.00;1.50;;;7.40;99.90;;;;;;5032093;28;20500;-83
2022/04/05 00:36:28;;;;;;;3.42;1.25;;;6.80;99.90;;;;;;5015872;28;20052;-83
2022/04/05 00:38:54;;;;;;;7.18;1.48;;;6.60;99.90;;;;;;5033563;28;20500;-83
2022/04/05 00:41:20;;;;;;;7.03;1.50;;;5.70;99.90;;;;;;5032427;28;20132;-83
2022/04/05 00:43:46;;;;;;;6.32;1.35;;;6.60;99.90;;;;;;5033340;28;20050;-83
2022/04/05 00:46:12;;;;;;;7.40;1.55;;;6.20;99.90;;;;;;5035443;28;20045;-83
2022/04/05 00:48:53;;;;;;;7.72;1.52;;;6.50;99.90;;;;;;5035570;28;20094;-83
2022/04/05 00:51:20;;;;;;;8.85;1.77;;;6.40;99.90;;;;;;5035492;28;20530;-83
2022/04/05 00:53:48;;;;;;;6.65;1.45;;;6.50;99.90;;;;;;5035404;28;20050;-83
2022/04/05 00:56:18;;;;;;;5.57;1.40;;;6.50;99.90;;;;;;5035788;28;20049;-83
2022/04/05 00:58:49;;;;;;;5.18;1.15;;;6.20;99.90;;;;;;5036774;28;20473;-83
2022/04/05 01:01:19;;;;;;;9.85;1.40;;;7.20;99.90;;;;;;5035240;28;20049;-83
2022/04/05 01:03:49;;;;;;;10.55;1.45;;;6.90;99.90;;;;;;5036775;28;20565;-83
2022/04/05 01:06:23;;;;;;;7.90;1.08;;;6.20;99.90;;;;;;5035745;28;20110;-83
2022/04/05 01:08:49;;;;;;;6.50;1.40;;;7.60;99.90;;;;;;5035485;28;20053;-83
2022/04/05 01:11:15;;;;;;;5.75;1.27;;;6.40;99.90;;;;;;5035484;28;20049;-83
2022/04/05 01:13:42;;;;;;;4.82;1.00;;;6.70;99.90;;;;;;5036610;28;20055;-83
2022/04/05 01:16:08;;;;;;;4.78;1.05;;;6.40;99.90;;;;;;5002386;28;20055;-83
2022/04/05 01:18:34;;;;;;;2.80;0.82;;;6.40;99.90;;;;;;5035491;28;20455;-83
2022/04/05 01:21:00;;;;;;;5.78;1.10;;;6.50;99.90;;;;;;5018704;28;20052;-83
2022/04/05 01:23:25;;;;;;;3.25;0.90;;;7.00;99.90;;;;;;5035341;28;20049;-83
2022/04/05 01:25:52;;;;;;;8.85;1.08;;;7.40;99.90;;;;;;5035175;28;20045;-83
2022/04/05 01:28:19;;;;;;;4.50;1.30;;;6.30;99.90;;;;;;5036427;28;20401;-83
2022/04/05 01:30:45;;;;;;;6.35;1.10;;;6.30;99.90;;;;;;5018760;28;20051;-83
2022/04/05 01:33:11;;;;;;;3.72;1.00;;;6.30;99.90;;;;;;5034977;28;20548;-83
2022/04/05 01:35:36;;;;;;;3.60;0.90;;;6.30;99.90;;;;;;5036341;28;20049;-83
2022/04/05 01:38:03;;;;;;;6.43;1.15;;;6.30;99.90;;;;;;5035108;28;20050;-83
2022/04/05 01:40:29;;;;;;;5.05;1.17;;;6.30;99.90;;;;;;5035622;28;20057;-83
2022/04/05 01:42:56;;;;;;;5.22;1.05;;;7.40;99.90;;;;;;5036150;28;20056;-83
2022/04/05 01:45:26;;;;;;;3.80;1.13;;;6.30;99.90;;;;;;5038344;28;20134;-83
2022/04/05 01:47:52;;;;;;;4.72;1.30;;;6.30;99.90;;;;;;5036936;28;20038;-83
2022/04/05 01:50:18;;;;;;;5.55;1.30;;;7.30;99.90;;;;;;5020425;28;20056;-83
2022/04/05 01:52:43;;;;;;;7.95;1.20;;;6.30;99.90;;;;;;5040516;28;20111;-83
2022/04/05 01:55:10;;;;;;;6.00;1.40;;;6.30;99.90;;;;;;5045209;28;20064;-83
2022/04/05 01:57:35;;;;;;;6.40;1.70;;;6.30;99.90;;;;;;5046498;28;20049;-83
2022/04/05 02:00:05;;;;;;;7.97;1.55;;;6.30;99.90;;;;;;5043136;28;20049;-83
2022/04/05 02:02:31;;;;;;;6.70;1.35;;;6.30;99.90;;;;;;5040687;28;20050;-83
2022/04/05 02:04:56;;;;;;;10.00;1.60;;;6.40;99.90;;;;;;5040684;28;20147;-83
2022/04/05 02:07:23;;;;;;;6.15;1.50;;;6.30;99.90;;;;;;5041911;28;20037;-83
2022/04/05 02:09:49;;;;;;;6.13;1.33;;;5.70;99.90;;;;;;5047214;28;20049;-83
2022/04/05 02:12:16;;;;;;;4.85;1.70;;;6.30;99.90;;;;;;5050484;28;20077;-83
2022/04/05 02:14:42;;;;;;;8.60;1.63;;;6.30;99.90;;;;;;5051209;28;20055;-83
2022/04/05 02:17:08;;;;;;;8.50;1.42;;;6.40;99.90;;;;;;5050051;28;20072;-83
2022/04/05 02:19:36;;;;;;;7.47;1.63;;;6.30;99.90;;;;;;5030877;28;20481;-83
2022/04/05 02:22:02;;;;;;;7.78;1.60;;;6.30;99.90;;;;;;5043158;28;20049;-83
2022/04/05 02:24:28;;;;;;;6.22;1.60;;;6.40;99.90;;;;;;5043005;28;20084;-83
2022/04/05 02:26:53;;;;;;;4.75;1.30;;;7.20;99.90;;;;;;5041733;28;20045;-83
2022/04/05 02:29:19;;;;;;;5.43;1.60;;;6.50;99.90;;;;;;5042082;28;20137;-83
2022/04/05 02:31:45;;;;;;;6.53;1.60;;;6.30;99.90;;;;;;5025533;28;20103;-83
2022/04/05 02:34:10;;;;;;;7.32;1.75;;;6.70;99.90;;;;;;5042479;28;20045;-83
2022/04/05 02:36:36;;;;;;;5.45;1.50;;;6.10;99.90;;;;;;5041551;28;20108;-83
2022/04/05 02:39:03;;;;;;;8.02;1.58;;;6.70;99.90;;;;;;5042795;28;20041;-83
2022/04/05 02:41:30;;;;;;;9.60;1.58;;;6.40;99.90;;;;;;5024876;28;20457;-83
2022/04/05 02:43:58;;;;;;;7.13;1.63;;;6.30;99.90;;;;;;5041035;28;20463;-83
2022/04/05 02:46:25;;;;;;;4.93;1.55;;;7.50;99.90;;;;;;5040833;28;20432;-83
2022/04/05 02:48:54;;;;;;;4.82;1.40;;;6.40;99.90;;;;;;5041364;28;20080;-83
2022/04/05 02:51:21;;;;;;;6.28;1.60;;;6.40;99.90;;;;;;5041067;28;20100;-83
2022/04/05 02:53:47;;;;;;;6.80;1.40;;;6.40;99.90;;;;;;5040835;28;20073;-83
2022/04/05 02:56:13;;;;;;;6.30;1.45;;;7.20;99.90;;;;;;5040484;28;20034;-83
2022/04/05 02:58:40;;;;;;;7.70;1.58;;;6.40;99.90;;;;;;5042163;28;20085;-83
2022/04/05 03:01:06;;;;;;;4.82;1.33;;;6.40;99.90;;;;;;5041919;28;20107;-83
2022/04/05 03:03:32;;;;;;;6.80;1.40;;;7.10;99.90;;;;;;5040039;28;20045;-83
2022/04/05 03:05:58;;;;;;;6.18;1.23;;;6.30;99.90;;;;;;5023909;28;20037;-83
2022/04/05 03:08:24;;;;;;;5.53;1.50;;;6.30;99.90;;;;;;5039622;28;20053;-83
2022/04/05 03:10:50;;;;;;;5.38;1.30;;;6.30;99.90;;;;;;5042036;28;20080;-83
2022/04/05 03:13:15;;;;;;;6.38;1.77;;;6.30;99.90;;;;;;5040675;28;20045;-83
2022/04/05 03:15:41;;;;;;;5.95;1.35;;;6.30;99.90;;;;;;5041451;28;20128;-83
2022/04/05 03:18:07;;;;;;;6.05;1.40;;;6.40;99.90;;;;;;5039411;28;20049;-83
2022/04/05 03:20:32;;;;;;;10.30;2.05;;;6.40;99.90;;;;;;5039115;28;20136;-83
2022/04/05 03:23:00;;;;;;;11.63;1.80;;;6.40;99.90;;;;;;5040587;28;20497;-83
2022/04/05 03:25:26;;;;;;;6.80;1.77;;;6.40;99.90;;;;;;5039034;28;20073;-83
2022/04/05 03:27:53;;;;;;;6.28;1.30;;;6.40;99.90;;;;;;5038850;28;20046;-83
2022/04/05 03:30:20;;;;;;;4.97;1.35;;;6.40;99.90;;;;;;5038522;28;20117;-83
2022/04/05 03:32:46;;;;;;;6.22;1.50;;;6.40;99.90;;;;;;5040959;28;20369;-83
2022/04/05 03:35:12;;;;;;;4.38;1.20;;;6.40;99.90;;;;;;5039377;28;20049;-83
2022/04/05 03:37:37;;;;;;;8.10;1.80;;;6.40;99.90;;;;;;5039906;28;20053;-83
2022/04/05 03:40:08;;;;;;;5.57;1.42;;;6.40;99.90;;;;;;5040229;28;20042;-83
2022/04/05 03:42:34;;;;;;;10.05;1.60;;;6.40;99.90;;;;;;5040039;28;20057;-83
2022/04/05 03:45:01;;;;;;;7.00;1.40;;;6.80;99.90;;;;;;5039997;28;20046;-83
2022/04/05 03:47:27;;;;;;;7.32;1.70;;;6.50;99.90;;;;;;5041221;28;20512;-83
2022/04/05 03:49:53;;;;;;;8.85;1.63;;;6.10;99.90;;;;;;5042099;28;20057;-83
2022/04/05 03:52:19;;;;;;;5.88;1.55;;;7.00;99.90;;;;;;5040153;28;20132;-83
2022/04/05 03:54:45;;;;;;;8.35;1.45;;;6.50;99.90;;;;;;5056502;28;20080;-83
2022/04/05 03:57:11;;;;;;;6.18;1.50;;;7.30;99.90;;;;;;5040025;28;20384;-83
2022/04/05 03:59:37;;;;;;;6.82;1.40;;;7.20;99.90;;;;;;5040098;28;20141;-83
2022/04/05 04:02:04;;;;;;;8.88;1.52;;;6.50;99.90;;;;;;5023737;28;20069;-83
2022/04/05 04:04:29;;;;;;;10.70;1.48;;;6.40;99.90;;;;;;5024104;28;20046;-83
2022/04/05 04:06:55;;;;;;;6.88;1.38;;;6.30;99.90;;;;;;5023707;28;20076;-83
2022/04/05 04:09:21;;;;;;;8.27;1.38;;;6.70;99.90;;;;;;5040366;28;20038;-83
2022/04/05 04:11:46;;;;;;;9.13;1.70;;;6.40;99.90;;;;;;5023925;28;20469;-83
2022/04/05 04:14:17;;;;;;;4.38;1.50;;;6.40;99.90;;;;;;5024186;28;20054;-82
2022/04/05 04:16:43;;;;;;;7.25;1.55;;;6.40;99.90;;;;;;5040833;28;20138;-83
2022/04/05 04:19:08;;;;;;;8.13;1.60;;;6.40;99.90;;;;;;5025725;28;20045;-83
2022/04/05 04:21:34;;;;;;;7.75;1.58;;;6.40;99.90;;;;;;5043946;28;20484;-83
2022/04/05 04:24:00;;;;;;;5.80;1.23;;;6.30;99.90;;;;;;5027466;28;20072;-83
2022/04/05 04:26:26;;;;;;;6.90;1.50;;;6.40;99.90;;;;;;5045534;28;20049;-83
2022/04/05 04:28:55;;;;;;;8.88;1.55;;;6.30;99.90;;;;;;5044969;28;20060;-83
2022/04/05 04:31:21;;;;;;;6.65;1.38;;;6.30;99.90;;;;;;5044678;28;20401;-83
2022/04/05 04:33:47;;;;;;;7.85;1.48;;;6.30;99.90;;;;;;5043279;28;20044;-83
2022/04/05 04:36:13;;;;;;;4.88;1.35;;;6.30;99.90;;;;;;5043192;28;20051;-83
2022/04/05 04:38:38;;;;;;;6.20;1.13;;;7.50;99.90;;;;;;5043493;28;20374;-83
2022/04/05 04:41:04;;;;;;;4.35;1.40;;;6.30;99.90;;;;;;5043858;28;20049;-83
2022/04/05 04:43:30;;;;;;;6.20;1.20;;;6.30;99.90;;;;;;5043873;28;20038;-83
2022/04/05 04:45:55;;;;;;;4.07;1.35;;;6.30;99.90;;;;;;5043140;28;20105;-83
2022/04/05 04:48:22;;;;;;;9.38;1.48;;;6.20;99.90;;;;;;5045225;28;20038;-83
2022/04/05 04:50:49;;;;;;;5.50;1.13;;;6.30;99.90;;;;;;5043614;28;20045;-83
2022/04/05 04:53:15;;;;;;;6.70;1.50;;;6.20;99.90;;;;;;5042512;28;20060;-83
2022/04/05 04:55:40;;;;;;;5.13;1.00;;;6.20;99.90;;;;;;5059532;28;20049;-83
2022/04/05 04:58:06;;;;;;;3.90;1.15;;;6.10;99.90;;;;;;5042833;28;20107;-83
2022/04/05 05:00:32;;;;;;;6.88;1.17;;;6.20;99.90;;;;;;5027000;28;20449;-83
2022/04/05 05:02:57;;;;;;;5.38;1.15;;;6.20;99.90;;;;;;5025549;28;20049;-83
2022/04/05 05:05:23;;;;;;;2.92;0.98;;;6.20;99.90;;;;;;5044416;28;20038;-83
2022/04/05 05:07:50;;;;;;;5.63;1.30;;;6.20;99.90;;;;;;5042884;28;20045;-83
2022/04/05 05:10:17;;;;;;;4.55;1.00;;;6.90;99.90;;;;;;5042164;28;20045;-83
2022/04/05 05:12:43;;;;;;;4.72;0.93;;;6.10;99.90;;;;;;5042213;28;20045;-83
2022/04/05 05:15:13;;;;;;;5.72;0.95;;;6.10;99.90;;;;;;5041944;28;20057;-83
2022/04/05 05:17:39;;;;;;;4.03;1.05;;;6.10;99.90;;;;;;5042505;28;20109;-83
2022/04/05 05:20:06;;;;;;;5.97;1.20;;;5.60;99.90;;;;;;5026287;28;20457;-83
2022/04/05 05:22:32;;;;;;;6.82;1.15;;;6.10;99.90;;;;;;5043481;28;20038;-83
2022/04/05 05:24:58;;;;;;;3.58;1.15;;;6.10;99.90;;;;;;5041945;28;20538;-83
2022/04/05 05:27:23;;;;;;;5.35;1.00;;;6.10;99.90;;;;;;5025830;28;20068;-83
2022/04/05 05:29:49;;;;;;;5.22;1.10;;;7.40;99.90;;;;;;5047952;28;20088;-83
2022/04/05 05:32:15;;;;;;;3.60;1.00;;;6.80;99.90;;;;;;5041885;28;20052;-83
2022/04/05 05:34:41;;;;;;;5.10;1.23;;;6.10;99.90;;;;;;5026009;28;20046;-83
2022/04/05 05:37:08;;;;;;;4.65;1.25;;;6.10;99.90;;;;;;5043748;28;20046;-83
2022/04/05 05:39:36;;;;;;;6.88;1.55;;;6.60;99.90;;;;;;5044089;28;20516;-83
2022/04/05 05:42:01;;;;;;;6.50;1.60;;;5.80;99.90;;;;;;5042726;28;20049;-83
2022/04/05 05:44:27;;;;;;;5.15;1.80;;;6.20;99.90;;;;;;5026008;28;20041;-83
2022/04/05 05:46:53;;;;;;;6.28;1.55;;;6.20;99.90;;;;;;5042562;28;20053;-83
2022/04/05 05:49:18;;;;;;;6.20;1.70;;;6.20;99.90;;;;;;5042756;28;20047;-83
2022/04/05 05:51:44;;;;;;;7.43;1.48;;;6.20;99.90;;;;;;5025473;28;20055;-83
2022/04/05 05:54:10;;;;;;;4.47;1.17;;;6.20;99.90;;;;;;5041634;28;20049;-83
2022/04/05 05:56:35;;;;;;;4.70;1.20;;;6.20;99.90;;;;;;5043098;28;20091;-83
2022/04/05 05:59:01;;;;;;;4.68;1.38;;;6.20;99.90;;;;;;5042085;28;20045;-83
2022/04/05 06:01:27;;;;;;;6.75;1.40;;;6.30;99.90;;;;;;5040812;28;20098;-83
2022/04/05 06:03:52;;;;;;;6.40;1.25;;;6.20;99.90;;;;;;5024605;28;20050;-83
2022/04/05 06:06:18;;;;;;;4.53;1.00;;;6.30;99.90;;;;;;5041679;28;20042;-83
2022/04/05 06:08:43;;;;;;;4.50;1.20;;;6.30;99.90;;;;;;5041602;28;20128;-83
2022/04/05 06:11:10;;;;;;;2.85;1.20;;;6.30;99.90;;;;;;5041976;28;20120;-83
2022/04/05 06:13:36;;;;;;;5.68;1.30;;;6.40;99.90;;;;;;5042518;28;20413;-83
2022/04/05 06:16:03;;;;;;;5.35;1.30;;;6.40;99.90;;;;;;5042003;28;20049;-83
2022/04/05 06:18:29;;;;;;;4.95;1.30;;;6.40;99.90;;;;;;5040996;28;20054;-83
2022/04/05 06:20:54;;;;;;;6.13;1.70;;;6.50;99.90;;;;;;5041962;28;20500;-83
2022/04/05 06:23:20;;;;;;;4.97;1.40;;;6.50;99.90;;;;;;5042001;28;20114;-83
2022/04/05 06:25:46;;;;;;;3.60;1.35;;;6.60;99.90;;;;;;5042262;28;20048;-83
2022/04/05 06:28:11;;;;;;;4.93;1.20;;;6.60;99.90;;;;;;5040554;28;20045;-83
2022/04/05 06:30:42;;;;;;;5.20;1.10;;;6.30;99.90;;;;;;5040217;28;20049;-83
2022/04/05 06:33:18;;;;;;;6.32;1.40;;;6.70;99.90;;;;;;5040566;28;20053;-83
2022/04/05 06:35:50;;;;;;;3.72;1.00;;;6.70;99.90;;;;;;5040400;28;20084;-83
2022/04/05 06:38:16;;;;;;;5.18;1.30;;;6.70;99.90;;;;;;5040136;28;20045;-83
2022/04/05 06:40:43;;;;;;;4.22;1.55;;;6.70;99.90;;;;;;5041156;28;20110;-83
2022/04/05 06:43:13;;;;;;;4.07;1.30;;;6.70;99.90;;;;;;5040789;28;20046;-83
2022/04/05 06:45:44;;;;;;;4.38;1.30;;;6.80;99.90;;;;;;5040510;28;20049;-83
2022/04/05 06:48:10;;;;;;;4.63;1.08;;;6.50;99.90;;;;;;5041077;28;20132;-83
2022/04/05 06:50:36;;;;;;;4.30;1.17;;;6.80;99.90;;;;;;5039638;28;20080;-83
2022/04/05 06:53:04;;;;;;;3.95;1.25;;;6.80;99.90;;;;;;5022256;28;20060;-83
2022/04/05 06:55:30;;;;;;;4.47;1.20;;;6.80;99.90;;;;;;5038791;28;20053;-83
2022/04/05 06:57:56;;;;;;;3.08;1.25;;;6.90;99.90;;;;;;5040590;28;20089;-83
2022/04/05 07:00:24;;;;;;;4.38;1.40;;;6.90;99.90;;;;;;5022083;28;20111;-83
2022/04/05 07:02:51;;;;;;;4.75;1.70;;;6.60;99.90;;;;;;5040375;28;20056;-83
2022/04/05 07:05:17;;;;;;;4.15;1.27;;;7.60;99.90;;;;;;5040121;28;20038;-83
2022/04/05 07:07:43;;;;;;;4.75;1.42;;;6.40;99.90;;;;;;5038673;28;20048;-83
2022/04/05 07:10:11;;;;;;;3.45;1.58;;;6.90;99.90;;;;;;5040979;28;20120;-83
2022/04/05 07:12:37;;;;;;;5.00;1.40;;;6.90;99.90;;;;;;5036328;28;20127;-83
2022/04/05 07:15:04;;;;;;;3.95;1.50;;;6.90;99.90;;;;;;5033536;28;20136;-83
2022/04/05 07:17:30;;;;;;;4.72;1.70;;;7.00;99.90;;;;;;5017273;28;20053;-83
2022/04/05 07:19:55;;;;;;;5.60;1.70;;;6.80;99.90;;;;;;5033631;28;20051;-83
2022/04/05 07:22:21;;;;;;;5.95;1.48;;;7.10;99.90;;;;;;5033574;28;20038;-83
2022/04/05 07:24:47;;;;;;;4.30;1.60;;;6.90;99.90;;;;;;5033298;28;20540;-83
2022/04/05 07:27:13;;;;;;;5.30;2.10;;;7.10;99.90;;;;;;5016662;28;20099;-83
2022/04/05 07:29:42;;;;;;;6.35;1.70;;;7.40;99.90;;;;;;5033083;28;20444;-83
2022/04/05 07:32:08;;;;;;;4.68;1.50;;;7.00;99.90;;;;;;5033237;28;20041;-83
2022/04/05 07:34:33;;;;;;;4.28;1.40;;;7.20;99.90;;;;;;5034202;28;20076;-83
2022/04/05 07:37:00;;;;;;;5.22;1.80;;;7.30;99.90;;;;;;5032713;28;20042;-83
2022/04/05 07:39:26;;;;;;;5.95;2.35;;;7.90;99.90;;;;;;5016420;28;20056;-84
2022/04/05 07:41:52;;;;;;;4.72;2.10;;;7.40;99.90;;;;;;5032609;28;20481;-84
2022/04/05 07:44:18;;;;;;;4.35;1.80;;;7.50;99.90;;;;;;5032866;28;20049;-84
2022/04/05 07:46:44;;;;;;;6.45;2.00;;;7.50;99.90;;;;;;5032794;28;20124;-84
2022/04/05 07:49:09;;;;;;;4.38;1.85;;;7.80;99.90;;;;;;5034070;28;20156;-83
2022/04/05 07:51:36;;;;;;;3.85;1.67;;;7.60;99.90;;;;;;5034115;28;20056;-83
2022/04/05 07:54:03;;;;;;;5.57;2.00;;;7.60;99.90;;;;;;5015691;28;20132;-83
2022/04/05 07:56:29;;;;;;;4.25;1.98;;;7.70;99.90;;;;;;5032742;28;20091;-84
2022/04/05 07:58:55;;;;;;;4.93;1.73;;;7.80;99.90;;;;;;5034103;28;20057;-84
2022/04/05 08:01:20;;;;;;;6.63;1.77;;;7.70;99.90;;;;;;5016258;28;20436;-84
2022/04/05 08:03:46;;;;;;;3.47;1.73;;;7.80;99.90;;;;;;5032799;28;20077;-83
2022/04/05 08:06:11;;;;;;;4.07;1.60;;;7.80;99.90;;;;;;5032611;28;20045;-83
2022/04/05 08:08:37;;;;;;;3.63;1.70;;;7.90;99.90;;;;;;5032507;28;20075;-84
2022/04/05 08:11:03;;;;;;;4.28;1.80;;;7.40;99.90;;;;;;5032890;28;20053;-83
2022/04/05 08:13:29;;;;;;;4.75;2.15;;;7.90;99.90;;;;;;5043146;28;20045;-83
2022/04/05 08:15:55;;;;;;;5.47;2.10;;;7.90;99.90;;;;;;5018796;28;20558;-84
2022/04/05 08:18:21;;;;;;;3.90;1.70;;;8.00;99.90;;;;;;5032778;28;20124;-84
2022/04/05 08:20:47;;;;;;;3.92;1.70;;;8.10;99.90;;;;;;5032863;28;20168;-83
2022/04/05 08:23:13;;;;;;;2.83;1.52;;;8.70;99.90;;;;;;5032806;28;20053;-84
2022/04/05 08:25:39;;;;;;;3.97;1.50;;;8.00;99.90;;;;;;5033059;28;20045;-83
2022/04/05 08:28:05;;;;;;;4.68;1.95;;;8.70;99.90;;;;;;5033636;28;20072;-83
2022/04/05 08:30:31;;;;;;;5.20;1.67;;;8.00;99.90;;;;;;5032717;28;20091;-83
2022/04/05 08:32:57;;;;;;;2.60;1.38;;;7.90;99.90;;;;;;5033234;28;20042;-83
2022/04/05 08:35:23;;;;;;;2.95;1.60;;;8.10;99.90;;;;;;5033204;28;20111;-83
2022/04/05 08:37:51;;;;;;;5.35;1.60;;;8.20;99.90;;;;;;5032629;28;20056;-83
2022/04/05 08:40:20;;;;;;;3.45;1.40;;;8.20;99.90;;;;;;5032880;28;20045;-84
2022/04/05 08:42:51;;;;;;;2.42;1.42;;;8.50;99.90;;;;;;5015978;28;20064;-83
2022/04/05 08:45:24;;;;;;;2.90;1.20;;;8.20;99.90;;;;;;5032583;28;20381;-84
2022/04/05 08:47:52;;;;;;;4.32;1.65;;;8.20;99.90;;;;;;5032410;28;20085;-84
2022/04/05 08:50:24;;;;;;;2.15;1.23;;;8.20;99.90;;;;;;5032505;28;20058;-83
2022/04/05 08:52:50;;;;;;;3.53;1.58;;;8.30;99.90;;;;;;5032527;28;20072;-83
2022/04/05 08:55:17;;;;;;;2.13;1.02;;;8.10;99.90;;;;;;5033138;28;20116;-83
2022/04/05 08:57:43;;;;;;;2.40;1.20;;;8.20;99.90;;;;;;5033667;28;20064;-83
2022/04/05 09:00:11;;;;;;;2.50;0.88;;;8.30;99.90;;;;;;5032140;28;20046;-83
2022/04/05 09:02:37;;;;;;;2.47;1.05;;;8.20;99.90;;;;;;5015593;28;20049;-83
2022/04/05 09:05:03;;;;;;;2.08;0.90;;;8.20;99.90;;;;;;5032950;28;20055;-83
2022/04/05 09:07:34;;;;;;;2.15;1.17;;;8.40;99.90;;;;;;5037576;28;20041;-83
2022/04/05 09:10:15;;;;;;;3.03;1.30;;;8.40;99.90;;;;;;5019706;28;20041;-83
2022/04/05 09:12:44;;;;;;;2.78;0.75;;;8.50;99.90;;;;;;5035642;28;20080;-83
2022/04/05 09:15:16;;;;;;;1.77;0.88;;;8.50;99.90;;;;;;5035958;28;20042;-83
2022/04/05 09:17:44;;;;;;;2.38;1.20;;;8.50;99.90;;;;;;5035352;28;20045;-83
2022/04/05 09:20:12;;;;;;;2.00;1.02;;;8.50;99.90;;;;;;5035563;28;20056;-83
2022/04/05 09:22:38;;;;;;;1.92;1.08;;;8.60;99.90;;;;;;5035602;28;20492;-83
2022/04/05 09:25:10;;;;;;;2.40;0.98;;;8.60;99.90;;;;;;5019075;28;20037;-84
2022/04/05 09:27:49;;;;;;;2.88;1.30;;;8.60;99.90;;;;;;5035649;28;20059;-83
2022/04/05 09:30:17;;;;;;;2.67;1.45;;;8.70;99.90;;;;;;5036535;28;20048;-83
2022/04/05 09:32:47;;;;;;;3.42;1.75;;;8.70;99.90;;;;;;5036551;28;20119;-83
2022/04/05 09:35:14;;;;;;;4.53;2.00;;;9.10;99.90;;;;;;5035054;28;20045;-84
2022/04/05 09:37:40;;;;;;;3.40;1.80;;;8.80;99.90;;;;;;5018753;28;20076;-84
2022/04/05 09:40:20;;;;;;;3.58;1.95;;;9.30;99.90;;;;;;5034618;28;20400;-84
2022/04/05 09:43:15;;;;;;;3.50;1.88;;;8.70;99.90;;;;;;5036154;28;20149;-84
2022/04/05 09:45:53;;;;;;;4.93;2.30;;;8.70;99.90;;;;;;5034899;28;20038;-84
2022/04/05 09:48:21;;;;;;;4.63;2.58;;;8.70;99.90;;;;;;5040944;28;20045;-84
2022/04/05 09:51:10;;;;;;;5.90;2.95;;;8.90;99.90;;;;;;5043845;28;20041;-84
2022/04/05 09:53:39;;;;;;;4.70;2.58;;;8.70;99.90;;;;;;5045799;28;20057;-84
2022/04/05 09:56:10;;;;;;;6.35;3.05;;;8.70;99.90;;;;;;5045675;28;20049;-84
2022/04/05 09:58:48;;;;;;;7.40;3.53;;;8.70;99.90;;;;;;5041790;28;20033;-84
2022/04/05 10:01:15;;;;;;;8.90;3.60;;;8.80;99.90;;;;;;5035015;28;20080;-84
2022/04/05 10:03:42;;;;;;;7.45;3.58;;;8.90;99.90;;;;;;5018170;28;20389;-84
2022/04/05 10:06:09;;;;;;;9.13;3.80;;;9.20;99.90;;;;;;5036470;28;20120;-84
2022/04/05 10:08:37;;;;;;;8.15;3.67;;;9.20;99.90;;;;;;5035731;28;20056;-84
2022/04/05 10:11:04;;;;;;;7.85;4.10;;;9.60;99.90;;;;;;5036286;28;20053;-84
2022/04/05 10:13:30;;;;;;;6.53;3.40;;;9.60;99.90;;;;;;5034909;28;20049;-84
2022/04/05 10:16:00;;;;;;;7.90;3.80;;;9.80;99.90;;;;;;5017897;28;20447;-84
2022/04/05 10:18:32;;;;;;;7.00;3.50;;;10.70;99.90;;;;;;5034155;28;20513;-84
2022/04/05 10:20:58;;;;;;;5.95;3.15;;;10.00;99.90;;;;;;5018325;28;20373;-84
2022/04/05 10:23:23;;;;;;;5.80;2.50;;;10.30;99.90;;;;;;5034323;28;20497;-84
2022/04/05 10:25:51;;;;;;;4.72;2.33;;;10.70;99.90;;;;;;5018106;28;20047;-84
2022/04/05 10:28:23;;;;;;;4.38;2.50;;;11.60;99.90;;;;;;5018696;28;20127;-84
2022/04/05 10:31:24;;;;;;;5.05;2.20;;;10.70;99.90;;;;;;5033939;28;20077;-84
2022/04/05 10:34:14;;;;;;;5.00;2.38;;;10.70;99.90;;;;;;5030458;28;20056;-84
2022/04/05 10:36:51;;;;;;;5.88;2.35;;;10.80;99.90;;;;;;5033961;28;20049;-84
2022/04/05 10:39:23;;;;;;;3.63;1.90;;;11.10;99.90;;;;;;5034041;28;20050;-84
2022/04/05 10:42:07;;;;;;;3.85;2.03;;;10.90;99.90;;;;;;5033926;28;20583;-84
2022/04/05 10:44:34;;;;;;;4.85;2.60;;;10.90;99.90;;;;;;5033760;28;20106;-84
2022/04/05 10:47:01;;;;;;;4.97;2.60;;;11.00;99.90;;;;;;5034132;28;20056;-84
2022/04/05 10:49:43;;;;;;;4.75;2.45;;;11.80;99.90;;;;;;5017081;28;20397;-84
2022/04/05 10:52:18;;;;;;;4.28;2.50;;;11.00;99.90;;;;;;5017026;28;20370;-85
2022/04/05 10:54:49;;;;;;;4.82;2.60;;;12.00;99.90;;;;;;5017308;28;20076;-84
2022/04/05 10:57:29;;;;;;;4.18;2.30;;;11.20;99.90;;;;;;5033665;28;20061;-84
2022/04/05 10:59:58;;;;;;;5.45;3.00;;;11.10;99.90;;;;;;5038992;28;20416;-84
2022/04/05 11:02:35;;;;;;;5.80;2.97;;;11.70;99.90;;;;;;5043325;28;20052;-84
2022/04/05 11:05:23;;;;;;;7.43;3.53;;;11.00;99.90;;;;;;5036195;28;20069;-85
2022/04/05 11:07:51;;;;;;;6.38;3.47;;;10.80;99.90;;;;;;5025912;28;20056;-85
2022/04/05 11:10:25;;;;;;;8.30;4.25;;;10.70;99.90;;;;;;5036090;28;20504;-84
2022/04/05 11:13:00;;;;;;;8.23;4.50;;;11.20;99.90;;;;;;5018289;28;20064;-85
2022/04/05 11:15:41;;;;;;;10.73;5.00;;;11.60;99.90;;;;;;5033672;28;20071;-85
2022/04/05 11:18:11;;;;;;;8.93;5.05;;;11.10;99.90;;;;;;5033840;28;20042;-84
2022/04/05 11:20:41;;;;;;;12.52;6.07;;;11.60;99.90;;;;;;5035885;28;20061;-85
2022/04/05 11:23:07;;;;;;;9.63;5.25;;;11.10;99.90;;;;;;5033793;28;20060;-84
2022/04/05 11:25:33;;;;;;;9.30;4.95;;;11.00;99.90;;;;;;5032775;28;20048;-85
2022/04/05 11:28:15;;;;;;;11.25;5.15;;;11.30;99.90;;;;;;5017632;28;20050;-83
2022/04/05 11:31:02;;;;;;;12.55;4.68;;;11.00;99.90;;;;;;5034058;28;20071;-85
2022/04/05 11:33:31;;;;;;;9.40;4.90;;;11.00;99.90;;;;;;5032815;28;20060;-85
2022/04/05 11:36:04;;;;;;;11.63;4.38;;;11.20;99.90;;;;;;5032673;28;20195;-85
2022/04/05 11:38:38;;;;;;;8.27;3.85;;;10.80;99.90;;;;;;5016150;28;20465;-85
2022/04/05 11:41:23;;;;;;;9.90;4.30;;;10.80;99.90;;;;;;5032676;28;20042;-84
2022/04/05 11:43:51;;;;;;;11.40;5.05;;;10.80;99.90;;;;;;5032469;28;20057;-85
2022/04/05 11:46:25;;;;;;;10.52;4.85;;;10.80;99.90;;;;;;5015946;28;20041;-84
2022/04/05 11:48:53;;;;;;;12.88;5.18;;;10.90;99.90;;;;;;5034085;28;20374;-85
2022/04/05 11:51:21;;;;;;;10.13;4.47;;;10.90;99.90;;;;;;5032943;28;20045;-85
2022/04/05 11:53:47;;;;;;;10.35;5.03;;;11.10;99.90;;;;;;5015648;28;20054;-84
2022/04/05 11:56:20;;;;;;;11.05;5.32;;;11.30;99.90;;;;;;5032288;28;20156;-85
2022/04/05 11:58:51;;;;;;;10.82;5.25;;;11.00;99.90;;;;;;5032250;28;20053;-85
2022/04/05 12:01:32;;;;;;;9.75;4.45;;;11.00;99.90;;;;;;5032120;28;20045;-85
2022/04/05 12:04:05;;;;;;;9.20;4.50;;;10.90;99.90;;;;;;5032496;28;20119;-85
2022/04/05 12:06:34;;;;;;;12.05;5.07;;;10.90;99.90;;;;;;5032235;28;20049;-85
2022/04/05 12:09:07;;;;;;;13.00;4.60;;;10.90;99.90;;;;;;5032118;28;20489;-85
2022/04/05 12:11:36;;;;;;;13.95;5.43;;;10.70;99.90;;;;;;5032286;28;20053;-85
2022/04/05 12:14:06;;;;;;;10.45;5.32;;;10.90;99.90;;;;;;5032217;28;20046;-85
2022/04/05 12:17:08;;;;;;;17.75;6.55;;;10.50;99.90;;;;;;5032170;28;20045;-84
2022/04/05 12:19:39;;;;;;;17.55;5.55;;;10.50;99.90;;;;;;5033761;28;20049;-85
2022/04/05 12:22:09;;;;;;;13.02;5.13;;;10.50;99.90;;;;;;5033881;28;20044;-84
2022/04/05 12:24:54;;;;;;;17.13;5.97;;;10.50;99.90;;;;;;5033540;28;20045;-84
2022/04/05 12:27:21;;;;;;;17.67;6.00;;;10.40;99.90;;;;;;5032218;28;20052;-84
2022/04/05 12:29:47;;;;;;;19.13;6.10;;;10.30;99.90;;;;;;5015985;28;20045;-85
2022/04/05 12:32:14;;;;;;;19.48;6.25;;;11.00;99.90;;;;;;5031938;28;20482;-84
2022/04/05 12:34:41;;;;;;;18.95;6.35;;;10.30;99.90;;;;;;5015595;28;20045;-84
2022/04/05 12:37:12;;;;;;;21.20;6.35;;;11.00;99.90;;;;;;5033253;28;20037;-85
2022/04/05 12:39:46;;;;;;;20.60;6.18;;;10.00;99.90;;;;;;5031994;28;20045;-84
2022/04/05 12:42:13;;;;;;;17.25;5.72;;;10.30;99.90;;;;;;5035468;28;20046;-84
2022/04/05 12:44:41;;;;;;;16.55;5.80;;;10.40;99.90;;;;;;5035797;28;20481;-85
2022/04/05 12:47:08;;;;;;;16.90;5.85;;;10.50;99.90;;;;;;5035695;28;20040;-84
2022/04/05 12:49:35;;;;;;;14.85;5.43;;;10.40;99.90;;;;;;5035575;28;20049;-85
2022/04/05 12:52:21;;;;;;;19.55;5.65;;;11.20;99.90;;;;;;5035610;28;20049;-85
2022/04/05 12:54:49;;;;;;;;;;;10.40;99.90;;;;;;5035930;28;20049;-84
2022/04/05 12:57:40;;;;;;;18.17;5.47;;;10.40;99.90;;;;;;5037008;28;19928;-84
2022/04/05 13:00:11;;;;;;;16.60;6.20;;;10.30;99.90;;;;;;5036838;28;20041;-84